Valborg — OFNR — position and weather

sailwx.info

Track history (hours):
 
Tides and Currents Weather Stations Pressure Air Temp Water Temp Dewpoint Dewpoint Depression Visibility Wind Speed Wind Dir Waves Ship Positions

Valborg

Last reported at 2014-Jun-30 11:24 UTC. Time now 2014-Jul-22 11:26 UTC.
Position N 59°49' E 023°06'.
Warning: this ship's position is 22 days out of date.

Length 30 m; draft 2.4 m.

Type: Sailing vessel. MMSI: 230108270.

Date/timePositionNaut miles runAvg speedWind from/ knotsBaromVisibWave heightAir tempDewpointWater temp
2014-Jun-30 11:24N 59°49' E 023°06'6 6.8
2014-Jun-30 10:33N 59°51' E 023°17'7 6.5
2014-Jun-30 09:33N 59°51' E 023°30'7 6.8
2014-Jun-30 08:33N 59°54' E 023°42'27 1.5
2014-Jun-29 14:29N 60°01' E 024°35'6 7.0
2014-Jun-29 13:33N 60°06' E 024°44'6 6.2
2014-Jun-29 12:33N 60°09' E 024°55'  
2014-Jun-25 17:33N 60°10' E 024°59'1 0.9
2014-Jun-25 16:34N 60°09' E 024°58'1 1.0
2014-Jun-25 15:32N 60°10' E 024°59'  
2014-Jun-22 09:26N 60°10' E 024°59'4 0.6
2014-Jun-22 03:26N 60°11' E 025°06'0 0.0
2014-Jun-22 02:32N 60°11' E 025°06'0 0.0
2014-Jun-21 16:23N 60°11' E 025°06'0 0.0
2014-Jun-21 13:26N 60°11' E 025°06'0 0.0
2014-Jun-21 12:08N 60°11' E 025°06'0 0.0
2014-Jun-21 11:23N 60°11' E 025°06'0 0.0
2014-Jun-21 10:32N 60°11' E 025°06'0 0.0
2014-Jun-21 09:30N 60°11' E 025°06'  
Track history (hours):
 
Tides and Currents Weather Stations Pressure Air Temp Water Temp Dewpoint Dewpoint Depression Visibility Wind Speed Wind Dir Waves Ship Positions

Valborg

Last reported at 2014-Jun-30 11:24 UTC. Time now 2014-Jul-22 11:26 UTC.
Position N 59°49' E 023°06'.
Warning: this ship's position is 22 days out of date.

Length 30 m; draft 2.4 m.

Type: Sailing vessel. MMSI: 230108270.

Date/timePositionNaut miles runAvg speedWind from/ knotsBaromVisibWave heightAir tempDewpointWater temp
2014-Jun-30 11:24N 59°49' E 023°06'6 6.8
2014-Jun-30 10:33N 59°51' E 023°17'7 6.5
2014-Jun-30 09:33N 59°51' E 023°30'7 6.8
2014-Jun-30 08:33N 59°54' E 023°42'27 1.5
2014-Jun-29 14:29N 60°01' E 024°35'6 7.0
2014-Jun-29 13:33N 60°06' E 024°44'6 6.2
2014-Jun-29 12:33N 60°09' E 024°55'  
2014-Jun-25 17:33N 60°10' E 024°59'1 0.9
2014-Jun-25 16:34N 60°09' E 024°58'1 1.0
2014-Jun-25 15:32N 60°10' E 024°59'  
2014-Jun-22 09:26N 60°10' E 024°59'4 0.6
2014-Jun-22 03:26N 60°11' E 025°06'0 0.0
2014-Jun-22 02:32N 60°11' E 025°06'0 0.0
2014-Jun-21 16:23N 60°11' E 025°06'0 0.0
2014-Jun-21 13:26N 60°11' E 025°06'0 0.0
2014-Jun-21 12:08N 60°11' E 025°06'0 0.0
2014-Jun-21 11:23N 60°11' E 025°06'0 0.0
2014-Jun-21 10:32N 60°11' E 025°06'0 0.0
2014-Jun-21 09:30N 60°11' E 025°06'  

Dump ship's entire track history